Time;durP1;ratioP1;P1;durP2;ratioP2;P2;SDS_P1;SDS_P2;PMS_P1;PMS_P2;Temp;Humidity;BMP_temperature;BMP_pressure;BME280_temperature;BME280_humidity;BME280_pressure;Samples;Min_cycle;Max_cycle;Signal;HPM_P1;HPM_P2
2024/03/20 00:01:41;;;;;;;0.00;0.00;;;19.30;45.70;;;;;;5033517;28;20196;-48
2024/03/20 00:04:12;;;;;;;0.00;0.00;;;19.30;45.70;;;;;;5032968;28;20223;-44
2024/03/20 00:06:44;;;;;;;0.00;0.00;;;19.30;45.70;;;;;;5033158;28;20589;-46
2024/03/20 00:09:16;;;;;;;0.03;0.03;;;19.40;45.70;;;;;;5033410;28;20251;-47
2024/03/20 00:11:47;;;;;;;0.00;0.00;;;19.40;45.80;;;;;;5033263;28;20231;-44
2024/03/20 00:14:18;;;;;;;0.00;0.00;;;19.40;45.80;;;;;;5032954;28;20262;-45
2024/03/20 00:16:49;;;;;;;0.00;0.00;;;19.40;45.80;;;;;;5033094;28;20199;-45
2024/03/20 00:19:20;;;;;;;0.00;0.00;;;19.40;45.80;;;;;;5033173;28;20280;-46
2024/03/20 00:21:52;;;;;;;0.00;0.00;;;19.50;45.80;;;;;;5033167;28;20258;-45
2024/03/20 00:24:23;;;;;;;0.00;0.00;;;19.50;45.80;;;;;;5032772;28;20228;-44
2024/03/20 00:26:54;;;;;;;0.00;0.00;;;19.50;45.80;;;;;;5033254;28;20663;-45
2024/03/20 00:29:25;;;;;;;0.00;0.00;;;19.60;46.30;;;;;;5033282;28;20208;-46
2024/03/20 00:31:56;;;;;;;0.10;0.10;;;19.60;45.70;;;;;;5033036;28;20196;-46
2024/03/20 00:34:27;;;;;;;0.00;0.00;;;19.60;45.70;;;;;;5032775;28;20269;-45
2024/03/20 00:37:00;;;;;;;0.00;0.00;;;19.70;45.70;;;;;;5033150;28;20204;-44
2024/03/20 00:39:31;;;;;;;0.00;0.00;;;19.70;45.60;;;;;;5032354;28;20649;-45
2024/03/20 00:42:02;;;;;;;0.00;0.00;;;19.70;45.60;;;;;;5033022;28;20561;-47
2024/03/20 00:44:36;;;;;;;0.10;0.10;;;19.80;45.60;;;;;;5032954;28;20290;-44
2024/03/20 00:47:07;;;;;;;0.00;0.00;;;19.80;45.70;;;;;;5019836;28;20192;-45
2024/03/20 00:49:38;;;;;;;0.03;0.03;;;19.80;45.70;;;;;;5013010;28;20193;-45
2024/03/20 00:52:10;;;;;;;0.00;0.00;;;19.80;45.60;;;;;;5013161;28;20217;-45
2024/03/20 00:54:41;;;;;;;0.00;0.00;;;19.80;45.60;;;;;;5018654;28;20224;-45
2024/03/20 00:57:12;;;;;;;0.03;0.03;;;19.90;45.70;;;;;;5030168;28;20309;-48
2024/03/20 00:59:43;;;;;;;0.00;0.00;;;19.80;45.70;;;;;;5032766;28;20532;-46
2024/03/20 01:02:13;;;;;;;0.00;0.00;;;19.80;45.70;;;;;;5032225;28;20581;-46
2024/03/20 01:04:44;;;;;;;0.00;0.00;;;19.80;45.80;;;;;;5028476;28;20270;-45
2024/03/20 01:07:17;;;;;;;0.00;0.00;;;19.90;45.70;;;;;;5032689;28;20570;-44
2024/03/20 01:09:47;;;;;;;0.03;0.03;;;19.90;45.60;;;;;;5032260;28;20212;-44
2024/03/20 01:12:18;;;;;;;0.00;0.00;;;19.90;45.60;;;;;;5032687;28;20259;-46
2024/03/20 01:14:49;;;;;;;0.08;0.08;;;20.00;45.50;;;;;;5031986;28;20216;-51
2024/03/20 01:17:20;;;;;;;0.00;0.00;;;20.00;45.60;;;;;;5032446;28;20591;-46
2024/03/20 01:19:51;;;;;;;0.00;0.00;;;20.00;45.60;;;;;;5032501;28;20678;-48
2024/03/20 01:22:23;;;;;;;0.00;0.00;;;20.00;45.50;;;;;;5032147;28;20204;-45
2024/03/20 01:24:54;;;;;;;0.00;0.00;;;20.00;45.40;;;;;;5032337;28;20235;-47
2024/03/20 01:27:25;;;;;;;0.00;0.00;;;20.00;45.30;;;;;;5031360;28;20196;-46
2024/03/20 01:29:55;;;;;;;0.10;0.10;;;20.10;45.90;;;;;;5031328;28;20204;-47
2024/03/20 01:32:26;;;;;;;0.00;0.00;;;20.10;45.20;;;;;;5032428;28;20208;-46
2024/03/20 01:34:57;;;;;;;0.00;0.00;;;20.10;45.20;;;;;;5031938;28;20219;-46
2024/03/20 01:37:29;;;;;;;0.00;0.00;;;20.10;45.20;;;;;;5032283;28;20204;-45
2024/03/20 01:40:00;;;;;;;0.00;0.00;;;20.10;45.20;;;;;;5031728;28;20199;-46
2024/03/20 01:42:30;;;;;;;0.00;0.00;;;20.20;45.20;;;;;;5031742;28;20272;-47
2024/03/20 01:45:14;;;;;;;0.00;0.00;;;20.10;45.00;;;;;;5031619;28;20239;-47
2024/03/20 01:47:45;;;;;;;0.03;0.03;;;20.20;45.10;;;;;;5031928;28;20287;-47
2024/03/20 01:50:17;;;;;;;0.00;0.00;;;20.20;45.00;;;;;;5031952;28;20254;-49
2024/03/20 01:52:56;;;;;;;0.00;0.00;;;20.20;45.00;;;;;;5031577;28;20200;-46
2024/03/20 01:55:27;;;;;;;0.00;0.00;;;20.20;44.90;;;;;;5031851;28;20203;-48
2024/03/20 01:57:58;;;;;;;0.10;0.10;;;20.30;44.80;;;;;;5031761;28;20250;-45
2024/03/20 02:00:29;;;;;;;0.05;0.05;;;20.30;44.80;;;;;;5032168;28;20207;-46
2024/03/20 02:03:02;;;;;;;0.08;0.08;;;20.30;44.80;;;;;;5029561;28;20283;-50
2024/03/20 02:05:33;;;;;;;0.00;0.00;;;20.30;44.80;;;;;;5012859;28;20235;-46
2024/03/20 02:08:06;;;;;;;0.00;0.00;;;20.30;44.80;;;;;;5011727;28;20711;-49
2024/03/20 02:10:36;;;;;;;0.00;0.00;;;20.30;44.70;;;;;;5011582;28;20201;-48
2024/03/20 02:13:07;;;;;;;0.00;0.00;;;20.30;44.70;;;;;;5012016;28;20247;-47
2024/03/20 02:15:38;;;;;;;0.03;0.03;;;20.30;44.70;;;;;;5011903;28;20196;-45
2024/03/20 02:18:09;;;;;;;0.00;0.00;;;20.40;44.80;;;;;;5011419;28;20201;-48
2024/03/20 02:20:40;;;;;;;0.10;0.10;;;20.40;44.80;;;;;;5011739;28;20251;-49
2024/03/20 02:23:12;;;;;;;0.00;0.00;;;20.40;44.80;;;;;;5011218;28;20640;-45
2024/03/20 02:25:43;;;;;;;0.10;0.10;;;20.40;44.80;;;;;;5025446;28;20235;-49
2024/03/20 02:28:14;;;;;;;0.00;0.00;;;20.40;44.80;;;;;;5030293;28;20208;-46
2024/03/20 02:30:44;;;;;;;0.00;0.00;;;20.50;44.90;;;;;;5030809;28;20200;-45
2024/03/20 02:33:15;;;;;;;0.00;0.00;;;20.50;44.90;;;;;;5031523;28;20269;-46
2024/03/20 02:35:45;;;;;;;0.10;0.10;;;20.50;44.90;;;;;;5031600;28;20204;-50
2024/03/20 02:38:16;;;;;;;0.03;0.03;;;20.50;44.80;;;;;;5032163;28;20210;-45
2024/03/20 02:40:47;;;;;;;0.00;0.00;;;20.50;44.80;;;;;;5034993;28;20219;-45
2024/03/20 02:43:18;;;;;;;0.00;0.00;;;20.50;44.80;;;;;;5035218;28;20571;-48
2024/03/20 02:45:48;;;;;;;0.00;0.00;;;20.50;44.80;;;;;;5035529;28;20223;-48
2024/03/20 02:48:19;;;;;;;0.00;0.00;;;20.60;44.90;;;;;;5027062;28;20193;-46
2024/03/20 02:50:50;;;;;;;0.00;0.00;;;20.60;44.90;;;;;;5014978;28;20668;-44
2024/03/20 02:53:23;;;;;;;0.10;0.10;;;20.60;44.90;;;;;;5014387;28;20217;-44
2024/03/20 02:55:53;;;;;;;0.00;0.00;;;20.60;44.80;;;;;;5029187;28;20211;-44
2024/03/20 02:58:24;;;;;;;0.00;0.00;;;20.70;44.80;;;;;;5033977;28;20199;-47
2024/03/20 03:00:54;;;;;;;0.00;0.00;;;20.70;44.80;;;;;;5032380;28;20189;-46
2024/03/20 03:03:25;;;;;;;0.00;0.00;;;20.70;44.80;;;;;;5034656;28;20216;-45
2024/03/20 03:05:56;;;;;;;0.10;0.10;;;20.70;44.80;;;;;;5034340;28;20281;-45
2024/03/20 03:08:28;;;;;;;0.10;0.10;;;20.70;44.80;;;;;;5034017;28;20204;-46
2024/03/20 03:10:59;;;;;;;0.00;0.00;;;20.80;44.90;;;;;;5034506;28;20266;-46
2024/03/20 03:13:29;;;;;;;0.10;0.10;;;20.80;45.00;;;;;;5034431;28;20227;-44
2024/03/20 03:16:04;;;;;;;0.00;0.00;;;20.80;45.00;;;;;;5034615;28;20192;-48
2024/03/20 03:18:35;;;;;;;0.00;0.00;;;20.80;45.10;;;;;;5034613;28;20246;-46
2024/03/20 03:21:05;;;;;;;0.00;0.00;;;20.90;45.10;;;;;;5034225;28;20200;-44
2024/03/20 03:23:38;;;;;;;0.10;0.10;;;20.90;45.10;;;;;;5034685;28;20220;-46
2024/03/20 03:26:09;;;;;;;0.00;0.00;;;20.90;45.10;;;;;;5034422;28;20271;-45
2024/03/20 03:28:39;;;;;;;0.00;0.00;;;20.90;45.10;;;;;;5034446;28;20262;-49
2024/03/20 03:31:10;;;;;;;0.00;0.00;;;20.90;45.10;;;;;;5034822;28;20200;-46
2024/03/20 03:33:40;;;;;;;0.05;0.05;;;21.00;45.20;;;;;;5034588;28;20223;-48
2024/03/20 03:36:12;;;;;;;0.00;0.00;;;21.00;45.20;;;;;;5034528;28;20196;-48
2024/03/20 03:38:44;;;;;;;0.10;0.10;;;21.00;45.20;;;;;;5034569;28;20565;-46
2024/03/20 03:41:15;;;;;;;0.00;0.00;;;21.00;45.20;;;;;;5034277;28;20250;-47
2024/03/20 03:43:46;;;;;;;0.00;0.00;;;21.10;45.20;;;;;;5033875;28;20220;-46
2024/03/20 03:46:17;;;;;;;0.00;0.00;;;21.10;45.10;;;;;;5034139;28;20231;-47
2024/03/20 03:48:47;;;;;;;0.00;0.00;;;21.10;45.10;;;;;;5034120;28;20655;-46
2024/03/20 03:51:18;;;;;;;0.00;0.00;;;21.10;45.10;;;;;;5033330;28;20850;-45
2024/03/20 03:53:50;;;;;;;0.10;0.10;;;21.20;45.10;;;;;;5033754;28;20216;-45
2024/03/20 03:56:21;;;;;;;0.00;0.00;;;21.20;45.10;;;;;;5033495;28;20204;-47
2024/03/20 03:58:52;;;;;;;0.00;0.00;;;21.20;45.10;;;;;;5033535;28;20196;-46
2024/03/20 04:01:22;;;;;;;0.00;0.00;;;21.20;45.10;;;;;;5033390;28;20196;-46
2024/03/20 04:03:53;;;;;;;0.00;0.00;;;21.20;45.10;;;;;;5033199;28;20220;-49
2024/03/20 04:06:24;;;;;;;0.00;0.00;;;21.30;45.10;;;;;;5032950;28;20219;-47
2024/03/20 04:08:56;;;;;;;0.00;0.00;;;21.30;45.10;;;;;;5033214;28;20203;-46
2024/03/20 04:11:27;;;;;;;0.10;0.10;;;21.30;45.00;;;;;;5023241;28;20196;-45
2024/03/20 04:13:58;;;;;;;0.00;0.00;;;21.30;45.00;;;;;;5013838;28;20220;-45
2024/03/20 04:16:28;;;;;;;0.00;0.00;;;21.30;45.00;;;;;;5024726;28;20204;-44
2024/03/20 04:18:59;;;;;;;0.10;0.10;;;21.30;45.00;;;;;;5025194;28;20200;-47
2024/03/20 04:21:29;;;;;;;0.00;0.00;;;21.40;45.10;;;;;;5029211;28;20299;-50
2024/03/20 04:24:02;;;;;;;0.00;0.00;;;21.40;45.00;;;;;;5010841;28;20221;-46
2024/03/20 04:26:33;;;;;;;0.00;0.00;;;21.40;45.00;;;;;;5028684;28;20610;-49
2024/03/20 04:29:04;;;;;;;0.08;0.08;;;21.50;44.90;;;;;;5027467;28;20254;-46
2024/03/20 04:31:35;;;;;;;0.00;0.00;;;21.50;44.90;;;;;;5029931;28;20205;-48
2024/03/20 04:34:06;;;;;;;0.00;0.00;;;21.50;44.80;;;;;;5029898;28;20219;-47
2024/03/20 04:36:38;;;;;;;0.00;0.00;;;21.50;44.80;;;;;;5028969;28;20531;-49
2024/03/20 04:39:11;;;;;;;0.10;0.10;;;21.50;44.80;;;;;;5028861;28;20208;-47
2024/03/20 04:41:44;;;;;;;0.00;0.00;;;21.50;44.80;;;;;;5029281;28;20195;-52
2024/03/20 04:44:15;;;;;;;0.00;0.00;;;21.60;44.80;;;;;;5028728;28;20228;-46
2024/03/20 04:46:46;;;;;;;0.00;0.00;;;21.60;44.80;;;;;;5029519;28;20231;-49
2024/03/20 04:49:16;;;;;;;0.10;0.10;;;21.60;44.80;;;;;;5028967;28;20660;-46
2024/03/20 04:51:47;;;;;;;0.10;0.10;;;21.60;44.70;;;;;;5029729;28;20204;-47
2024/03/20 04:54:19;;;;;;;0.10;0.10;;;21.70;44.80;;;;;;5029216;28;20228;-47
2024/03/20 04:56:50;;;;;;;0.00;0.00;;;21.70;45.30;;;;;;5029286;28;20207;-49
2024/03/20 04:59:21;;;;;;;0.00;0.00;;;21.70;44.80;;;;;;5027077;28;20652;-48
2024/03/20 05:01:51;;;;;;;0.00;0.00;;;21.80;44.80;;;;;;5010758;28;20271;-45
2024/03/20 05:04:22;;;;;;;0.00;0.00;;;21.80;44.70;;;;;;5009277;28;20221;-48
2024/03/20 05:06:53;;;;;;;0.00;0.00;;;21.80;44.60;;;;;;5007359;28;20652;-45
2024/03/20 05:09:25;;;;;;;0.10;0.10;;;21.90;44.70;;;;;;5026718;28;20234;-47
2024/03/20 05:11:56;;;;;;;0.00;0.00;;;21.90;44.60;;;;;;5013355;28;20201;-46
2024/03/20 05:14:27;;;;;;;0.00;0.00;;;21.90;44.60;;;;;;5009370;28;20244;-45
2024/03/20 05:16:59;;;;;;;0.00;0.00;;;21.90;44.60;;;;;;5009712;28;20205;-46
2024/03/20 05:19:29;;;;;;;0.03;0.03;;;21.90;44.60;;;;;;5008855;28;20201;-45
2024/03/20 05:21:59;;;;;;;0.00;0.00;;;21.90;44.60;;;;;;5027200;28;20211;-45
2024/03/20 05:24:30;;;;;;;0.00;0.00;;;21.90;44.60;;;;;;5028097;28;20227;-47
2024/03/20 05:27:01;;;;;;;0.00;0.00;;;22.00;44.50;;;;;;5024655;28;20286;-48
2024/03/20 05:29:30;;;;;;;0.00;0.00;;;22.00;44.50;;;;;;5008584;28;20200;-46
2024/03/20 05:32:01;;;;;;;0.03;0.03;;;22.00;44.40;;;;;;5009425;28;20255;-46
2024/03/20 05:34:30;;;;;;;0.00;0.00;;;22.00;44.40;;;;;;5020380;28;20228;-46
2024/03/20 05:37:01;;;;;;;0.00;0.00;;;22.00;44.40;;;;;;5028841;28;20203;-46
2024/03/20 05:39:32;;;;;;;0.03;0.03;;;22.00;44.30;;;;;;5028268;28;20667;-49
2024/03/20 05:42:04;;;;;;;0.03;0.03;;;22.10;44.40;;;;;;5028141;28;20204;-48
2024/03/20 05:44:33;;;;;;;0.03;0.03;;;22.10;44.40;;;;;;5027552;28;20278;-50
2024/03/20 05:47:04;;;;;;;0.00;0.00;;;22.10;44.40;;;;;;5028215;28;20224;-47
2024/03/20 05:49:33;;;;;;;0.08;0.08;;;22.10;44.30;;;;;;5027726;28;20204;-50
2024/03/20 05:52:04;;;;;;;0.00;0.00;;;22.10;44.30;;;;;;5028055;28;20204;-45
2024/03/20 05:54:35;;;;;;;0.10;0.10;;;22.10;44.30;;;;;;5027877;28;20273;-51
2024/03/20 05:57:06;;;;;;;0.10;0.10;;;22.10;44.20;;;;;;5028016;28;20696;-46
2024/03/20 05:59:36;;;;;;;0.00;0.00;;;22.10;44.10;;;;;;5025799;28;20672;-46
2024/03/20 06:02:06;;;;;;;0.00;0.00;;;22.10;44.00;;;;;;5027891;28;20253;-45
2024/03/20 06:04:36;;;;;;;0.00;0.00;;;22.10;44.00;;;;;;5026933;28;20224;-46
2024/03/20 06:07:06;;;;;;;0.00;0.00;;;22.00;44.10;;;;;;5025643;28;20224;-46
2024/03/20 06:09:37;;;;;;;0.00;0.00;;;22.10;43.90;;;;;;5027765;28;21021;-46
2024/03/20 06:12:09;;;;;;;0.00;0.00;;;22.00;43.80;;;;;;5026776;28;20334;-45
2024/03/20 06:14:38;;;;;;;0.00;0.00;;;22.00;43.80;;;;;;5026375;28;20687;-50
2024/03/20 06:17:09;;;;;;;0.00;0.00;;;22.00;43.80;;;;;;5028736;28;20215;-48
2024/03/20 06:19:38;;;;;;;0.00;0.00;;;22.00;43.80;;;;;;5028075;28;20204;-45
2024/03/20 06:22:09;;;;;;;0.00;0.00;;;22.00;43.80;;;;;;5028146;28;20212;-46
2024/03/20 06:24:40;;;;;;;0.00;0.00;;;22.00;43.80;;;;;;5027419;28;20216;-49
2024/03/20 06:27:10;;;;;;;0.00;0.00;;;22.00;43.70;;;;;;5027819;28;20235;-50
2024/03/20 06:29:39;;;;;;;0.05;0.05;;;22.00;43.70;;;;;;5029536;28;20196;-46
2024/03/20 06:32:10;;;;;;;0.03;0.03;;;22.00;43.80;;;;;;5031024;28;20291;-47
2024/03/20 06:34:39;;;;;;;0.00;0.00;;;21.90;43.70;;;;;;5031078;28;20235;-46
2024/03/20 06:37:10;;;;;;;0.00;0.00;;;21.90;43.70;;;;;;5030337;28;20279;-47
2024/03/20 06:39:41;;;;;;;0.00;0.00;;;21.90;43.80;;;;;;5030353;28;20238;-45
2024/03/20 06:42:16;;;;;;;0.05;0.05;;;21.90;43.80;;;;;;5030995;28;20667;-46
2024/03/20 06:44:45;;;;;;;0.00;0.00;;;21.90;43.90;;;;;;5030254;28;20695;-46
2024/03/20 06:47:17;;;;;;;0.00;0.00;;;21.90;44.00;;;;;;5031514;28;20224;-47
2024/03/20 06:49:47;;;;;;;0.00;0.00;;;21.90;44.10;;;;;;5030639;28;20671;-47
2024/03/20 06:52:20;;;;;;;0.10;0.10;;;21.90;44.10;;;;;;5030696;28;20191;-46
2024/03/20 06:54:52;;;;;;;0.00;0.00;;;21.90;44.20;;;;;;5015523;28;20247;-46
2024/03/20 06:57:22;;;;;;;0.00;0.00;;;21.90;44.20;;;;;;5007290;28;20197;-47
2024/03/20 06:59:52;;;;;;;0.00;0.00;;;21.90;44.20;;;;;;5016287;28;20193;-45
2024/03/20 07:02:23;;;;;;;0.00;0.00;;;21.90;44.10;;;;;;5027389;28;20250;-46
2024/03/20 07:04:52;;;;;;;0.00;0.00;;;21.90;44.10;;;;;;5027421;28;20251;-45
2024/03/20 07:07:23;;;;;;;0.00;0.00;;;21.90;44.10;;;;;;5024707;28;20228;-47
2024/03/20 07:09:54;;;;;;;0.00;0.00;;;21.90;44.10;;;;;;5027105;28;20207;-47
2024/03/20 07:12:25;;;;;;;0.00;0.00;;;21.90;44.10;;;;;;5026901;28;20235;-49
2024/03/20 07:14:54;;;;;;;0.00;0.00;;;21.90;44.10;;;;;;5025335;28;20217;-48
2024/03/20 07:17:25;;;;;;;0.00;0.00;;;21.90;44.10;;;;;;5008059;28;20203;-49
2024/03/20 07:19:54;;;;;;;0.00;0.00;;;21.90;44.10;;;;;;5006734;28;20259;-45
2024/03/20 07:22:25;;;;;;;0.00;0.00;;;21.90;44.00;;;;;;5013524;28;20196;-45
2024/03/20 07:24:56;;;;;;;0.00;0.00;;;21.90;44.00;;;;;;5027819;28;20354;-45
2024/03/20 07:27:26;;;;;;;0.00;0.00;;;21.90;44.00;;;;;;5030660;28;20243;-48
2024/03/20 07:29:56;;;;;;;0.00;0.00;;;21.80;43.90;;;;;;5030598;28;20226;-48
2024/03/20 07:32:26;;;;;;;0.00;0.00;;;21.80;43.90;;;;;;5030894;28;20590;-46
2024/03/20 07:34:56;;;;;;;0.00;0.00;;;21.80;43.90;;;;;;5030693;28;20791;-47
2024/03/20 07:37:27;;;;;;;0.10;0.10;;;21.80;43.90;;;;;;5030565;28;20414;-45
2024/03/20 07:39:59;;;;;;;0.00;0.00;;;21.80;43.90;;;;;;5031258;28;20511;-47
2024/03/20 07:42:30;;;;;;;0.10;0.10;;;21.80;43.90;;;;;;5029600;28;20611;-46
2024/03/20 07:44:59;;;;;;;0.10;0.10;;;21.70;43.90;;;;;;5030102;28;20641;-45
2024/03/20 07:47:29;;;;;;;0.00;0.00;;;21.70;43.90;;;;;;5031233;28;20228;-49
2024/03/20 07:49:59;;;;;;;0.00;0.00;;;21.70;43.90;;;;;;5020942;28;20208;-47
2024/03/20 07:52:29;;;;;;;0.00;0.00;;;21.70;43.90;;;;;;5030959;28;20722;-47
2024/03/20 07:55:02;;;;;;;0.00;0.00;;;21.70;44.00;;;;;;5026353;28;20224;-45
2024/03/20 07:57:33;;;;;;;0.00;0.00;;;21.60;43.90;;;;;;5033366;28;20201;-47
2024/03/20 08:00:05;;;;;;;0.00;0.00;;;21.60;43.90;;;;;;5033350;28;20204;-45
2024/03/20 08:02:36;;;;;;;0.10;0.10;;;21.60;43.90;;;;;;5033631;28;20236;-48
2024/03/20 08:05:06;;;;;;;0.00;0.00;;;21.60;43.90;;;;;;5033759;28;20215;-47
2024/03/20 08:07:37;;;;;;;0.00;0.00;;;21.60;43.90;;;;;;5033924;28;20282;-50
2024/03/20 08:10:10;;;;;;;0.00;0.00;;;21.60;43.90;;;;;;5033585;28;20296;-46
2024/03/20 08:12:41;;;;;;;0.00;0.00;;;21.50;43.90;;;;;;5031460;28;20196;-48
2024/03/20 08:15:11;;;;;;;0.00;0.00;;;21.50;43.80;;;;;;5033490;28;20224;-47
2024/03/20 08:17:41;;;;;;;0.00;0.00;;;21.50;43.90;;;;;;5033544;28;20651;-45
2024/03/20 08:20:12;;;;;;;0.00;0.00;;;21.50;43.90;;;;;;5033245;28;20196;-47
2024/03/20 08:22:43;;;;;;;0.10;0.10;;;21.50;43.80;;;;;;5033017;28;20293;-49
2024/03/20 08:25:14;;;;;;;0.00;0.00;;;21.40;43.80;;;;;;5025743;28;20216;-45
2024/03/20 08:27:45;;;;;;;0.00;0.00;;;21.40;43.90;;;;;;5029307;28;20728;-45
2024/03/20 08:30:15;;;;;;;0.00;0.00;;;21.40;43.90;;;;;;5029555;28;20192;-45
2024/03/20 08:32:45;;;;;;;0.03;0.03;;;21.30;43.90;;;;;;5028794;28;20218;-47
2024/03/20 08:35:16;;;;;;;0.00;0.00;;;21.30;43.90;;;;;;5016863;28;20216;-44
2024/03/20 08:37:47;;;;;;;0.00;0.00;;;21.30;44.00;;;;;;5023154;28;20200;-46
2024/03/20 08:40:18;;;;;;;0.00;0.00;;;21.30;44.00;;;;;;5028562;28;20208;-45
2024/03/20 08:42:49;;;;;;;0.00;0.00;;;21.30;44.00;;;;;;5028710;28;20242;-46
2024/03/20 08:45:18;;;;;;;0.00;0.00;;;21.20;44.30;;;;;;5028839;28;20279;-46
2024/03/20 08:47:50;;;;;;;0.00;0.00;;;21.20;44.00;;;;;;5029873;28;20278;-45
2024/03/20 08:50:20;;;;;;;0.00;0.00;;;21.20;44.00;;;;;;5029092;28;20612;-45
2024/03/20 08:52:50;;;;;;;0.00;0.00;;;21.10;44.00;;;;;;5028844;28;20207;-45
2024/03/20 08:55:22;;;;;;;0.00;0.00;;;21.10;44.00;;;;;;5029464;28;20219;-48
2024/03/20 08:57:53;;;;;;;0.00;0.00;;;21.10;44.00;;;;;;5028747;28;20204;-49
2024/03/20 09:00:22;;;;;;;0.10;0.10;;;21.10;44.00;;;;;;5024915;28;20619;-45
2024/03/20 09:02:53;;;;;;;0.00;0.00;;;21.10;44.10;;;;;;5009991;28;20509;-48
2024/03/20 09:05:23;;;;;;;0.00;0.00;;;21.00;44.00;;;;;;5027286;28;20199;-46
2024/03/20 09:07:54;;;;;;;0.00;0.00;;;21.10;44.10;;;;;;5028403;28;20228;-47
2024/03/20 09:10:25;;;;;;;0.00;0.00;;;21.00;44.00;;;;;;5014918;28;20201;-45
2024/03/20 09:12:56;;;;;;;0.00;0.00;;;21.00;44.10;;;;;;5009054;28;20203;-47
2024/03/20 09:15:25;;;;;;;0.00;0.00;;;21.00;44.00;;;;;;5008142;28;20209;-45
2024/03/20 09:17:56;;;;;;;0.00;0.00;;;20.90;44.00;;;;;;5015040;28;20934;-48
2024/03/20 09:20:25;;;;;;;0.00;0.00;;;20.90;43.90;;;;;;5028803;28;20200;-45
2024/03/20 09:22:56;;;;;;;0.00;0.00;;;20.90;44.00;;;;;;5018545;28;20196;-46
2024/03/20 09:25:27;;;;;;;0.00;0.00;;;20.90;44.00;;;;;;5020744;28;20208;-47
2024/03/20 09:27:59;;;;;;;0.00;0.00;;;20.90;44.00;;;;;;5028266;28;20231;-46
2024/03/20 09:30:29;;;;;;;0.00;0.00;;;20.80;44.10;;;;;;5027279;28;20215;-46
2024/03/20 09:33:00;;;;;;;0.00;0.00;;;20.80;44.20;;;;;;5027500;28;20290;-47
2024/03/20 09:35:29;;;;;;;0.00;0.00;;;20.80;44.10;;;;;;5028380;28;20200;-47
2024/03/20 09:38:00;;;;;;;0.00;0.00;;;20.80;44.10;;;;;;5027434;28;20199;-50
2024/03/20 09:40:31;;;;;;;0.00;0.00;;;20.80;44.10;;;;;;5028566;28;20322;-46
2024/03/20 09:43:02;;;;;;;0.00;0.00;;;20.70;44.10;;;;;;5028001;28;20257;-45
2024/03/20 09:45:32;;;;;;;0.00;0.00;;;20.70;44.10;;;;;;5027945;28;20208;-47
2024/03/20 09:48:03;;;;;;;0.00;0.00;;;20.70;44.10;;;;;;5028655;28;20234;-46
2024/03/20 09:50:32;;;;;;;0.00;0.00;;;20.70;44.10;;;;;;5028020;28;20204;-45
2024/03/20 09:53:03;;;;;;;0.00;0.00;;;20.60;44.00;;;;;;5028293;28;20200;-45
2024/03/20 09:55:40;;;;;;;0.00;0.00;;;20.60;44.10;;;;;;5027843;28;20203;-47
2024/03/20 09:58:14;;;;;;;0.00;0.00;;;20.60;44.10;;;;;;5028487;28;20207;-49
2024/03/20 10:00:43;;;;;;;0.05;0.05;;;20.60;44.10;;;;;;5027673;28;20663;-44
2024/03/20 10:03:15;;;;;;;0.00;0.00;;;20.50;44.10;;;;;;5027710;28;20200;-45
2024/03/20 10:05:45;;;;;;;0.00;0.00;;;20.50;44.10;;;;;;5027685;28;20686;-44
2024/03/20 10:08:17;;;;;;;0.00;0.00;;;20.50;44.10;;;;;;5026815;28;20487;-46
2024/03/20 10:10:48;;;;;;;0.00;0.00;;;20.50;44.00;;;;;;5027234;28;20718;-45
2024/03/20 10:13:19;;;;;;;0.00;0.00;;;20.50;44.00;;;;;;5026102;28;20797;-45
2024/03/20 10:15:48;;;;;;;0.00;0.00;;;20.50;44.10;;;;;;5028304;28;20231;-46
2024/03/20 10:18:20;;;;;;;0.00;0.00;;;20.40;43.90;;;;;;5027754;28;20199;-47
2024/03/20 10:20:51;;;;;;;0.00;0.00;;;20.40;44.00;;;;;;5027521;28;20206;-46
2024/03/20 10:23:22;;;;;;;0.00;0.00;;;20.40;44.10;;;;;;5026073;28;20715;-46
2024/03/20 10:25:53;;;;;;;0.08;0.08;;;20.30;44.00;;;;;;5027055;28;20212;-45
2024/03/20 10:28:24;;;;;;;0.00;0.00;;;20.30;44.00;;;;;;5027377;28;20591;-46
2024/03/20 10:30:54;;;;;;;0.00;0.00;;;20.30;44.10;;;;;;5027016;28;20258;-47
2024/03/20 10:33:26;;;;;;;0.00;0.00;;;20.30;44.10;;;;;;5030582;28;20223;-47
2024/03/20 10:35:56;;;;;;;0.00;0.00;;;20.20;44.00;;;;;;5011857;28;20197;-44
2024/03/20 10:38:29;;;;;;;0.03;0.03;;;20.20;44.10;;;;;;5011569;28;20290;-44
2024/03/20 10:41:00;;;;;;;0.00;0.00;;;20.20;44.00;;;;;;5011364;28;20197;-45
2024/03/20 10:43:31;;;;;;;0.10;0.10;;;20.20;44.10;;;;;;5010832;28;20217;-45
2024/03/20 10:46:01;;;;;;;0.00;0.00;;;20.20;44.10;;;;;;5011483;28;20200;-45
2024/03/20 10:48:31;;;;;;;0.08;0.08;;;20.10;44.10;;;;;;5011639;28;20231;-43
2024/03/20 10:51:01;;;;;;;0.00;0.00;;;20.10;44.10;;;;;;5011701;28;20251;-44
2024/03/20 10:53:33;;;;;;;0.10;0.10;;;20.10;44.10;;;;;;5029185;28;20216;-45
2024/03/20 10:56:05;;;;;;;0.00;0.00;;;20.10;44.10;;;;;;5031425;28;20200;-44
2024/03/20 10:58:36;;;;;;;0.00;0.00;;;20.00;44.10;;;;;;5030335;28;20200;-44
2024/03/20 11:01:06;;;;;;;0.10;0.10;;;20.00;44.10;;;;;;5017985;28;20192;-45
2024/03/20 11:03:48;;;;;;;0.00;0.00;;;20.00;44.10;;;;;;5023644;28;20743;-45
2024/03/20 11:06:40;;;;;;;0.00;0.00;;;20.00;44.10;;;;;;5024201;28;20195;-44
2024/03/20 11:09:31;;;;;;;0.00;0.00;;;19.90;44.00;;;;;;5025001;28;20224;-43
2024/03/20 11:12:25;;;;;;;0.00;0.00;;;19.90;44.10;;;;;;5021999;28;20696;-44
2024/03/20 11:14:56;;;;;;;0.08;0.08;;;19.90;44.10;;;;;;5022562;28;20208;-47
2024/03/20 11:17:26;;;;;;;0.08;0.08;;;19.90;44.10;;;;;;5017393;28;20263;-44
2024/03/20 11:19:59;;;;;;;0.10;0.10;;;19.90;44.20;;;;;;5015211;28;20196;-44
2024/03/20 11:22:28;;;;;;;0.10;0.10;;;19.90;44.30;;;;;;5014862;28;20200;-47
2024/03/20 11:24:59;;;;;;;0.10;0.10;;;19.90;44.30;;;;;;5023271;28;20834;-47
2024/03/20 11:27:30;;;;;;;0.00;0.00;;;19.80;44.20;;;;;;5034776;28;20224;-45
2024/03/20 11:30:01;;;;;;;0.03;0.03;;;19.80;44.20;;;;;;5034771;28;20231;-46
2024/03/20 11:32:30;;;;;;;0.00;0.00;;;19.80;44.20;;;;;;5034814;28;20624;-44
2024/03/20 11:35:01;;;;;;;0.00;0.00;;;19.80;44.30;;;;;;5034415;28;20311;-43
2024/03/20 11:37:31;;;;;;;0.10;0.10;;;19.80;44.30;;;;;;5034442;28;20207;-44
2024/03/20 11:40:02;;;;;;;0.00;0.00;;;19.80;44.30;;;;;;5034605;28;20702;-46
2024/03/20 11:42:34;;;;;;;0.10;0.10;;;19.70;44.30;;;;;;5034443;28;20282;-44
2024/03/20 11:45:04;;;;;;;0.00;0.00;;;19.70;44.30;;;;;;5033775;28;20270;-47
2024/03/20 11:47:35;;;;;;;0.10;0.10;;;19.70;44.30;;;;;;5034725;28;20250;-47
2024/03/20 11:50:06;;;;;;;0.00;0.00;;;19.70;44.30;;;;;;5034847;28;20206;-46
2024/03/20 11:52:36;;;;;;;0.00;0.00;;;19.70;44.30;;;;;;5034725;28;20250;-46
2024/03/20 11:55:10;;;;;;;0.00;0.00;;;19.70;44.30;;;;;;5033798;28;20223;-47
2024/03/20 11:57:42;;;;;;;0.00;0.00;;;19.60;44.30;;;;;;5033197;28;20280;-49
2024/03/20 12:00:15;;;;;;;0.00;0.00;;;19.60;44.30;;;;;;5034071;28;20223;-45
2024/03/20 12:02:47;;;;;;;0.10;0.10;;;19.60;44.30;;;;;;5033632;28;20195;-48
2024/03/20 12:05:20;;;;;;;0.00;0.00;;;19.60;44.30;;;;;;5034123;28;20219;-52
2024/03/20 12:07:57;;;;;;;0.00;0.00;;;19.60;44.30;;;;;;5033788;28;20647;-46
2024/03/20 12:10:36;;;;;;;0.00;0.00;;;19.60;44.30;;;;;;5033787;28;20192;-45
2024/03/20 12:13:10;;;;;;;0.00;0.00;;;19.60;44.40;;;;;;5017386;28;20196;-46
2024/03/20 12:15:41;;;;;;;0.05;0.05;;;19.60;44.30;;;;;;5014116;28;20287;-46
2024/03/20 12:18:11;;;;;;;0.10;0.10;;;19.50;44.30;;;;;;5015965;28;20204;-47
2024/03/20 12:20:42;;;;;;;0.10;0.10;;;19.50;44.40;;;;;;5033599;28;20571;-47
2024/03/20 12:23:11;;;;;;;0.00;0.00;;;19.50;44.40;;;;;;5033602;28;20196;-51
2024/03/20 12:25:42;;;;;;;0.00;0.00;;;19.50;44.40;;;;;;5033487;28;20204;-45
2024/03/20 12:28:13;;;;;;;0.03;0.03;;;19.50;44.40;;;;;;5033745;28;20263;-44
2024/03/20 12:30:43;;;;;;;0.10;0.10;;;19.40;44.40;;;;;;5033906;28;20200;-44
2024/03/20 12:33:12;;;;;;;0.00;0.00;;;19.40;44.40;;;;;;5033529;28;20200;-45
2024/03/20 12:35:43;;;;;;;0.00;0.00;;;19.40;44.40;;;;;;5033337;28;20231;-44
2024/03/20 12:38:12;;;;;;;0.00;0.00;;;19.40;44.40;;;;;;5033628;28;20200;-44
2024/03/20 12:40:44;;;;;;;0.00;0.00;;;19.40;44.40;;;;;;5032774;28;20544;-45
2024/03/20 12:43:15;;;;;;;0.00;0.00;;;19.40;45.00;;;;;;5033300;28;20196;-44
2024/03/20 12:45:48;;;;;;;0.00;0.00;;;19.40;44.50;;;;;;5032790;28;20208;-46
2024/03/20 12:48:18;;;;;;;0.00;0.00;;;19.40;44.50;;;;;;5043606;22;20239;-46
2024/03/20 12:50:51;;;;;;;0.00;0.00;;;19.40;44.50;;;;;;5032557;28;20584;-53
2024/03/20 12:53:20;;;;;;;0.10;0.10;;;19.40;44.50;;;;;;5032711;28;20239;-49
2024/03/20 12:55:51;;;;;;;0.10;0.10;;;19.30;44.50;;;;;;5021122;28;20722;-46
2024/03/20 12:58:22;;;;;;;0.05;0.05;;;19.30;44.50;;;;;;5033016;28;20594;-49
2024/03/20 13:00:53;;;;;;;0.10;0.10;;;19.30;44.50;;;;;;5032826;28;20200;-51
2024/03/20 13:03:22;;;;;;;0.08;0.08;;;19.30;44.40;;;;;;5032787;28;20216;-48
2024/03/20 13:05:56;;;;;;;0.00;0.00;;;19.30;44.70;;;;;;5032904;28;20660;-47
2024/03/20 13:08:25;;;;;;;0.10;0.10;;;19.30;44.50;;;;;;5032525;28;20310;-48